KRSW/RSW METAR and TAF weather

Enter ICAO airport designator
Station Type Date Time Source
KRSW METAR 2019/06/17 05:53 UTC NOAA

KRSW 170553Z AUTO 10003KT 10SM CLR 26/21 A3001 RMK AO2 SLP161 T02560211 10283 20256 58004


Station Type Date Time Source
KRSW Decoded METAR 2019/06/17 05:53 UTC NOAA

FORT MYERS SW FL INTERNATIONAL AIRPORT , FL, United States (KRSW) 26-32N 081-46W 9M
Jun 17, 2019 - 01:53 AM EDT / 2019.06.17 0553 UTC
Wind: from the E (100 degrees) at 3 MPH (3 KT):0
Visibility: 10 mile(s):0
Sky conditions: clear
Temperature: 78.1 F (25.6 C)
Dew Point: 70.0 F (21.1 C)
Relative Humidity: 76%
Pressure (altimeter): 30.01 in. Hg (1016 hPa)
Pressure tendency: 0.01 inches (0.4 hPa) lower than three hours ago
ob: KRSW 170553Z AUTO 10003KT 10SM CLR 26/21 A3001 RMK AO2 SLP161 T02560211 10283 20256 58004
cycle: 6

Station Type Date Time Source
KRSW TAF 2019/06/17 06:27 UTC NOAA

TAF KRSW 170524Z 1706/1806 10005KT P6SM SCT150
FM171500 14008KT P6SM VCSH SCT030 SCT150
FM171800 16010KT P6SM VCTS BKN035CB
FM180000 13006KT P6SM VCSH SCT040 BKN100

Example: see airport list